• Join FlightAware (Why Join?)
  • Login
  • US Flag 
11:56AM EDT


 

Airport Tracker/Info


-or-


 

Live Flight TrackerFlight Track Log ✈ EJA641 ✈ 29-Apr-2013 ✈ KSAV - KAPF

Flight Track Log - Related Links

Times and Time Zones

All times are in EDT time to prevent confusion due to time zone crossing. See the EJA641 flight status page for this flight to view local times or setup timezone preferences in your user account.

Time Position Orientation Groundspeed Altitude Reporting Facility
EDT Latitude Longitude Course Direction KTS MPH feet Rate Location/Type
06:11PM 32.0600 -81.1128 193° South 218 251 6,300  Level Jacksonville Center
06:12PM 32.0042 -81.1483 208° Southwest 244 281 9,500 1,800 Climbing Jacksonville Center
06:13PM 31.9444 -81.2058 219° Southwest 299 344 9,900 720 Climbing Jacksonville Center
06:14PM 31.8764 -81.2656 217° Southwest 308 354 11,000 1,560 Climbing Jacksonville Center
06:15PM 31.6709 -81.3158 190° South  Level FlightAware Approximate
06:15PM 31.7992 -81.2719 184° South 280 322 13,100  Level Jacksonville Center
06:16PM 31.5719 -81.3363 193° South  Level FlightAware Approximate
06:16PM 31.7261 -81.2658 176° South 290 334 14,900  Level Jacksonville Center
06:17PM 31.6319 -81.2603 177° South 295 339 17,000 1,920 Climbing Jacksonville Center
06:18PM 31.5464 -81.2519 175° South 307 353 18,800 1,500 Climbing Jacksonville Center
06:19PM 31.4669 -81.2483 178° South 321 369 20,100 1,500 Climbing Jacksonville Center
06:20PM 31.3625 -81.2406 176° South 338 389 21,800 900 Climbing Jacksonville Center
06:21PM 31.2706 -81.2397 180° South 353 406 22,000 60 Climbing Jacksonville Center
06:22PM 31.1681 -81.2294 175° South 366 421 22,000  Level Jacksonville Center
06:23PM 31.0617 -81.2264 179° South 377 434 22,000  Level Jacksonville Center
06:24PM 30.9550 -81.2139 174° South 384 442 22,000  Level Jacksonville Center
06:25PM 30.8561 -81.1697 159° South 384 442 22,000  Level Jacksonville Center
06:26PM 30.7539 -81.1642 177° South 373 429 22,000  Level Jacksonville Center
06:27PM 30.6536 -81.1611 178° South 368 423 22,000  Level Jacksonville Center
06:28PM 30.5428 -81.1558 178° South 373 429 22,000  Level Jacksonville Center
06:29PM 30.4319 -81.1364 171° South 393 452 22,000  Level Jacksonville Center
06:30PM 30.3208 -81.1094 168° South 404 465 22,000  Level Jacksonville Center
06:31PM 30.1972 -81.0806 169° South 410 472 22,000  Level Jacksonville Center
06:32PM 30.0861 -81.0536 168° South 410 472 22,000  Level Jacksonville Center
06:33PM 29.9731 -81.0272 169° South 410 472 22,000  Level Jacksonville Center
06:34PM 29.8622 -81.0031 169° South 410 472 22,000  Level Jacksonville Center
06:35PM 29.7531 -80.9764 168° South 410 472 22,000  Level Jacksonville Center
06:36PM 29.6442 -80.9497 168° South 410 472 22,000  Level Jacksonville Center
06:37PM 29.5331 -80.9208 167° South 410 472 22,000  Level Jacksonville Center
06:38PM 29.4242 -80.8944 168° South 410 472 22,000  Level Jacksonville Center
06:39PM 29.3111 -80.8683 169° South 410 472 22,000  Level Jacksonville Center
06:40PM 29.1986 -80.8478 171° South 412 474 22,000  Level Miami Center
06:41PM 29.0911 -80.8178 166° South 412 474 22,000  Level Miami Center
06:42PM 28.9811 -80.7947 170° South 412 474 22,000  Level Miami Center
06:43PM 28.8878 -80.7700 167° South 397 457 22,000  Level Miami Center
06:44PM 28.7781 -80.7472 170° South 397 457 22,000  Level Miami Center
06:45PM 28.6558 -80.7169 168° South 402 463 22,000 -180 Level Miami Center
06:46PM 28.5472 -80.7181 181° South 402 463 21,700 -960 Descending Miami Center
06:47PM 28.4719 -80.7956 222° Southwest 362 417 20,100 -900 Descending Miami Center
06:48PM 28.4117 -80.8689 227° Southwest 362 417 20,000 -60 Descending Miami Center
06:49PM 28.3283 -80.9319 214° Southwest 362 417 20,000  Level Miami Center
06:50PM 28.2311 -80.9803 204° Southwest 367 422 20,000 -180 Level Miami Center
06:51PM 28.1319 -81.0167 198° South 373 429 19,700 -840 Descending Miami Center
06:52PM 28.0233 -81.0244 184° South 383 441 18,400 -1,140 Descending Miami Center
06:53PM 27.9203 -81.0467 191° South 361 415 17,500 -1,200 Descending Miami Center
06:54PM 27.8331 -81.0997 208° Southwest 352 405 16,000 -780 Descending Miami Center
06:55PM 27.7589 -81.1439 208° Southwest 347 399 16,000 -540 Level Miami Center
06:56PM 27.6500 -81.1517 184° South 347 399 15,000 -1,500 Descending Miami Center
06:57PM 27.5542 -81.1433 176° South 347 399 13,100 -1,920 Descending Miami Center
06:58PM 27.4622 -81.1469 182° South 347 399 11,200 -1,560 Descending Miami Center
06:59PM 27.3939 -81.1981 214° Southwest 327 376 10,000 -600 Descending Miami Center
07:00PM 27.3086 -81.2628 214° Southwest 335 386 10,000  Level Miami Center
07:01PM 27.2297 -81.3133 210° Southwest 335 386 10,000 -60 Level Miami Center
07:02PM 27.1633 -81.3667 216° Southwest 335 386 9,900 -60 Descending Miami Center
07:03PM 27.0842 -81.4267 214° Southwest 340 391 9,900  Level Miami Center
07:04PM 27.0058 -81.4678 205° Southwest 328 377 10,000  Climbing Miami Center
07:05PM 26.9067 -81.4314 162° South 309 356 10,000  Level Miami Center
07:06PM 26.8225 -81.3886 156° South 324 373 10,000  Level Miami Center
07:07PM 26.7286 -81.3850 178° South 328 377 10,000  Level Miami Center
07:08PM 26.6425 -81.3978 188° South 343 395 10,000 -60 Level Miami Center
07:09PM 26.5422 -81.4033 183° South 348 400 9,900 -660 Descending Miami Center
07:10PM 26.4664 -81.4236 193° South 330 380 8,700 -1,320 Descending Miami Center
07:11PM 26.3967 -81.4486 198° South 294 338 7,300 -1,440 Descending Miami Center
07:13PM 26.2858 -81.5046 233° Southwest  Level FlightAware Approximate
07:20PM 26.1500 -81.7667 246° West  Level FlightAware Approximate
07:21PM 26.1524 -81.7756 246° West  Level Estimated
07:22PM 26.1524 -81.7756 246° West  Level Estimated
07:23PM 26.1524 -81.7756 246° West  Level Estimated
07:24PM 26.1524 -81.7756 246° West  Level Estimated
07:25PM 26.1524 -81.7756 246° West  Level Estimated
07:26PM 26.1524 -81.7756 246° West  Level Estimated
07:27PM 26.1524 -81.7756 246° West  Level Estimated
07:28PM 26.1524 -81.7756 246° West  Level Estimated